sensor_id;sensor_type;location;lat;lon;timestamp;P1;durP1;ratioP1;P2;durP2;ratioP2
35646;SDS011;28680;45.642;13.756;2023-07-20T00:02:00;2.85;;;1.35;;
35646;SDS011;28680;45.642;13.756;2023-07-20T00:04:28;6.45;;;1.98;;
35646;SDS011;28680;45.642;13.756;2023-07-20T00:06:54;4.00;;;1.60;;
35646;SDS011;28680;45.642;13.756;2023-07-20T00:09:20;4.15;;;1.65;;
35646;SDS011;28680;45.642;13.756;2023-07-20T00:11:50;4.13;;;1.40;;
35646;SDS011;28680;45.642;13.756;2023-07-20T00:14:18;3.47;;;1.70;;
35646;SDS011;28680;45.642;13.756;2023-07-20T00:16:45;6.60;;;1.70;;
35646;SDS011;28680;45.642;13.756;2023-07-20T00:19:14;3.15;;;1.80;;
35646;SDS011;28680;45.642;13.756;2023-07-20T00:21:41;4.90;;;1.63;;
35646;SDS011;28680;45.642;13.756;2023-07-20T00:24:07;4.32;;;1.70;;
35646;SDS011;28680;45.642;13.756;2023-07-20T00:26:33;2.97;;;1.50;;
35646;SDS011;28680;45.642;13.756;2023-07-20T00:28:59;3.90;;;1.35;;
35646;SDS011;28680;45.642;13.756;2023-07-20T00:31:25;4.03;;;1.90;;
35646;SDS011;28680;45.642;13.756;2023-07-20T00:33:52;4.07;;;1.55;;
35646;SDS011;28680;45.642;13.756;2023-07-20T00:36:18;3.42;;;1.50;;
35646;SDS011;28680;45.642;13.756;2023-07-20T00:38:44;4.40;;;1.55;;
35646;SDS011;28680;45.642;13.756;2023-07-20T00:41:10;5.72;;;1.63;;
35646;SDS011;28680;45.642;13.756;2023-07-20T00:43:39;4.97;;;1.60;;
35646;SDS011;28680;45.642;13.756;2023-07-20T00:46:05;5.90;;;1.80;;
35646;SDS011;28680;45.642;13.756;2023-07-20T00:48:33;3.90;;;1.83;;
35646;SDS011;28680;45.642;13.756;2023-07-20T00:50:59;4.47;;;1.98;;
35646;SDS011;28680;45.642;13.756;2023-07-20T00:53:26;4.75;;;1.88;;
35646;SDS011;28680;45.642;13.756;2023-07-20T00:55:53;4.43;;;1.95;;
35646;SDS011;28680;45.642;13.756;2023-07-20T00:58:20;4.70;;;1.48;;
35646;SDS011;28680;45.642;13.756;2023-07-20T01:00:46;6.20;;;1.63;;
35646;SDS011;28680;45.642;13.756;2023-07-20T01:03:12;4.95;;;1.50;;
35646;SDS011;28680;45.642;13.756;2023-07-20T01:05:46;3.67;;;1.67;;
35646;SDS011;28680;45.642;13.756;2023-07-20T01:08:18;9.43;;;2.28;;
35646;SDS011;28680;45.642;13.756;2023-07-20T01:11:40;5.15;;;1.77;;
35646;SDS011;28680;45.642;13.756;2023-07-20T01:14:09;4.82;;;2.05;;
35646;SDS011;28680;45.642;13.756;2023-07-20T01:16:37;4.63;;;2.10;;
35646;SDS011;28680;45.642;13.756;2023-07-20T01:19:03;7.13;;;1.77;;
35646;SDS011;28680;45.642;13.756;2023-07-20T01:21:40;3.33;;;2.05;;
35646;SDS011;28680;45.642;13.756;2023-07-20T01:31:42;5.40;;;1.92;;
35646;SDS011;28680;45.642;13.756;2023-07-20T01:34:13;6.35;;;1.80;;
35646;SDS011;28680;45.642;13.756;2023-07-20T01:36:44;4.03;;;1.90;;
35646;SDS011;28680;45.642;13.756;2023-07-20T01:39:11;8.50;;;1.80;;
35646;SDS011;28680;45.642;13.756;2023-07-20T01:41:38;4.40;;;1.95;;
35646;SDS011;28680;45.642;13.756;2023-07-20T01:44:04;4.63;;;1.80;;
35646;SDS011;28680;45.642;13.756;2023-07-20T01:46:30;5.95;;;1.55;;
35646;SDS011;28680;45.642;13.756;2023-07-20T01:48:57;6.25;;;1.65;;
35646;SDS011;28680;45.642;13.756;2023-07-20T01:51:23;4.50;;;1.77;;
35646;SDS011;28680;45.642;13.756;2023-07-20T01:53:49;5.82;;;2.10;;
35646;SDS011;28680;45.642;13.756;2023-07-20T01:56:15;7.47;;;1.90;;
35646;SDS011;28680;45.642;13.756;2023-07-20T01:58:41;4.63;;;1.90;;
35646;SDS011;28680;45.642;13.756;2023-07-20T02:01:07;5.30;;;1.80;;
35646;SDS011;28680;45.642;13.756;2023-07-20T02:03:33;4.18;;;2.00;;
35646;SDS011;28680;45.642;13.756;2023-07-20T02:06:00;3.97;;;1.90;;
35646;SDS011;28680;45.642;13.756;2023-07-20T02:08:26;5.18;;;2.20;;
35646;SDS011;28680;45.642;13.756;2023-07-20T02:10:55;4.82;;;2.15;;
35646;SDS011;28680;45.642;13.756;2023-07-20T02:13:22;8.85;;;2.30;;
35646;SDS011;28680;45.642;13.756;2023-07-20T02:15:48;5.22;;;2.35;;
35646;SDS011;28680;45.642;13.756;2023-07-20T02:18:14;8.63;;;2.35;;
35646;SDS011;28680;45.642;13.756;2023-07-20T02:20:41;6.88;;;2.30;;
35646;SDS011;28680;45.642;13.756;2023-07-20T02:23:07;5.70;;;2.00;;
35646;SDS011;28680;45.642;13.756;2023-07-20T02:25:38;6.13;;;2.15;;
35646;SDS011;28680;45.642;13.756;2023-07-20T02:28:04;5.60;;;2.40;;
35646;SDS011;28680;45.642;13.756;2023-07-20T02:30:33;5.63;;;2.13;;
35646;SDS011;28680;45.642;13.756;2023-07-20T02:32:59;4.43;;;1.92;;
35646;SDS011;28680;45.642;13.756;2023-07-20T02:35:25;6.07;;;1.80;;
35646;SDS011;28680;45.642;13.756;2023-07-20T02:37:52;6.00;;;1.95;;
35646;SDS011;28680;45.642;13.756;2023-07-20T02:40:18;5.75;;;2.17;;
35646;SDS011;28680;45.642;13.756;2023-07-20T02:42:44;8.73;;;2.53;;
35646;SDS011;28680;45.642;13.756;2023-07-20T02:45:10;5.28;;;2.10;;
35646;SDS011;28680;45.642;13.756;2023-07-20T02:47:36;9.00;;;2.33;;
35646;SDS011;28680;45.642;13.756;2023-07-20T02:50:02;6.93;;;2.22;;
35646;SDS011;28680;45.642;13.756;2023-07-20T02:52:32;7.05;;;2.28;;
35646;SDS011;28680;45.642;13.756;2023-07-20T02:54:58;5.63;;;1.98;;
35646;SDS011;28680;45.642;13.756;2023-07-20T02:57:24;7.10;;;1.90;;
35646;SDS011;28680;45.642;13.756;2023-07-20T02:59:50;5.60;;;1.70;;
35646;SDS011;28680;45.642;13.756;2023-07-20T03:02:16;6.68;;;1.90;;
35646;SDS011;28680;45.642;13.756;2023-07-20T03:04:43;5.00;;;1.98;;
35646;SDS011;28680;45.642;13.756;2023-07-20T03:07:09;6.30;;;2.08;;
35646;SDS011;28680;45.642;13.756;2023-07-20T03:09:35;4.40;;;1.70;;
35646;SDS011;28680;45.642;13.756;2023-07-20T03:12:01;8.77;;;2.20;;
35646;SDS011;28680;45.642;13.756;2023-07-20T03:14:30;6.03;;;2.22;;
35646;SDS011;28680;45.642;13.756;2023-07-20T03:16:57;3.88;;;1.63;;
35646;SDS011;28680;45.642;13.756;2023-07-20T03:19:23;3.75;;;1.95;;
35646;SDS011;28680;45.642;13.756;2023-07-20T03:21:49;8.13;;;2.17;;
35646;SDS011;28680;45.642;13.756;2023-07-20T03:24:15;5.60;;;2.05;;
35646;SDS011;28680;45.642;13.756;2023-07-20T03:26:42;4.50;;;1.98;;
35646;SDS011;28680;45.642;13.756;2023-07-20T03:29:08;7.93;;;2.40;;
35646;SDS011;28680;45.642;13.756;2023-07-20T03:31:34;4.53;;;1.70;;
35646;SDS011;28680;45.642;13.756;2023-07-20T03:34:00;5.40;;;2.00;;
35646;SDS011;28680;45.642;13.756;2023-07-20T03:36:26;6.68;;;1.92;;
35646;SDS011;28680;45.642;13.756;2023-07-20T03:38:52;4.88;;;2.08;;
35646;SDS011;28680;45.642;13.756;2023-07-20T03:41:18;6.47;;;1.95;;
35646;SDS011;28680;45.642;13.756;2023-07-20T03:43:45;4.80;;;2.15;;
35646;SDS011;28680;45.642;13.756;2023-07-20T03:46:11;6.47;;;2.08;;
35646;SDS011;28680;45.642;13.756;2023-07-20T03:48:37;7.20;;;2.25;;
35646;SDS011;28680;45.642;13.756;2023-07-20T03:51:03;15.52;;;3.70;;
35646;SDS011;28680;45.642;13.756;2023-07-20T03:53:29;4.57;;;1.90;;
35646;SDS011;28680;45.642;13.756;2023-07-20T03:55:55;10.70;;;2.35;;
35646;SDS011;28680;45.642;13.756;2023-07-20T03:58:21;8.25;;;2.70;;
35646;SDS011;28680;45.642;13.756;2023-07-20T04:00:50;5.18;;;1.98;;
35646;SDS011;28680;45.642;13.756;2023-07-20T04:03:17;5.05;;;1.83;;
35646;SDS011;28680;45.642;13.756;2023-07-20T04:05:44;5.90;;;2.30;;
35646;SDS011;28680;45.642;13.756;2023-07-20T04:08:11;6.07;;;2.10;;
35646;SDS011;28680;45.642;13.756;2023-07-20T04:11:03;4.75;;;1.85;;
35646;SDS011;28680;45.642;13.756;2023-07-20T04:13:41;6.72;;;2.28;;
35646;SDS011;28680;45.642;13.756;2023-07-20T04:16:07;6.93;;;2.20;;
35646;SDS011;28680;45.642;13.756;2023-07-20T04:21:39;4.82;;;2.22;;
35646;SDS011;28680;45.642;13.756;2023-07-20T04:24:12;5.38;;;1.95;;
35646;SDS011;28680;45.642;13.756;2023-07-20T04:26:38;3.75;;;1.70;;
35646;SDS011;28680;45.642;13.756;2023-07-20T04:29:04;4.90;;;1.90;;
35646;SDS011;28680;45.642;13.756;2023-07-20T04:31:36;5.28;;;1.60;;
35646;SDS011;28680;45.642;13.756;2023-07-20T04:34:02;5.75;;;1.95;;
35646;SDS011;28680;45.642;13.756;2023-07-20T04:36:29;6.18;;;1.80;;
35646;SDS011;28680;45.642;13.756;2023-07-20T04:38:55;4.47;;;1.65;;
35646;SDS011;28680;45.642;13.756;2023-07-20T04:41:22;7.70;;;2.03;;
35646;SDS011;28680;45.642;13.756;2023-07-20T04:43:51;7.18;;;1.98;;
35646;SDS011;28680;45.642;13.756;2023-07-20T04:46:24;4.63;;;1.80;;
35646;SDS011;28680;45.642;13.756;2023-07-20T04:48:50;3.13;;;1.60;;
35646;SDS011;28680;45.642;13.756;2023-07-20T04:51:16;7.07;;;2.03;;
35646;SDS011;28680;45.642;13.756;2023-07-20T04:53:47;6.35;;;1.70;;
35646;SDS011;28680;45.642;13.756;2023-07-20T04:56:13;5.63;;;1.70;;
35646;SDS011;28680;45.642;13.756;2023-07-20T04:58:39;6.18;;;1.90;;
35646;SDS011;28680;45.642;13.756;2023-07-20T05:01:05;6.35;;;1.80;;
35646;SDS011;28680;45.642;13.756;2023-07-20T05:03:33;4.75;;;1.80;;
35646;SDS011;28680;45.642;13.756;2023-07-20T05:06:00;6.25;;;1.92;;
35646;SDS011;28680;45.642;13.756;2023-07-20T05:08:26;4.93;;;1.95;;
35646;SDS011;28680;45.642;13.756;2023-07-20T05:10:52;5.93;;;2.10;;
35646;SDS011;28680;45.642;13.756;2023-07-20T05:13:19;6.78;;;2.50;;
35646;SDS011;28680;45.642;13.756;2023-07-20T05:15:50;3.95;;;2.00;;
35646;SDS011;28680;45.642;13.756;2023-07-20T05:18:27;4.70;;;1.83;;
35646;SDS011;28680;45.642;13.756;2023-07-20T05:21:10;4.85;;;1.73;;
35646;SDS011;28680;45.642;13.756;2023-07-20T05:23:36;4.75;;;2.00;;
35646;SDS011;28680;45.642;13.756;2023-07-20T05:26:02;8.35;;;2.55;;
35646;SDS011;28680;45.642;13.756;2023-07-20T05:28:28;6.97;;;2.47;;
35646;SDS011;28680;45.642;13.756;2023-07-20T05:30:54;5.50;;;2.00;;
35646;SDS011;28680;45.642;13.756;2023-07-20T05:33:20;5.32;;;1.90;;
35646;SDS011;28680;45.642;13.756;2023-07-20T05:35:47;6.45;;;2.22;;
35646;SDS011;28680;45.642;13.756;2023-07-20T05:38:13;4.05;;;2.20;;
35646;SDS011;28680;45.642;13.756;2023-07-20T05:40:43;6.18;;;2.28;;
35646;SDS011;28680;45.642;13.756;2023-07-20T05:43:10;4.70;;;1.92;;
35646;SDS011;28680;45.642;13.756;2023-07-20T05:45:36;4.13;;;2.35;;
35646;SDS011;28680;45.642;13.756;2023-07-20T05:48:02;7.97;;;2.70;;
35646;SDS011;28680;45.642;13.756;2023-07-20T05:50:29;5.90;;;2.00;;
35646;SDS011;28680;45.642;13.756;2023-07-20T05:52:58;4.13;;;1.80;;
35646;SDS011;28680;45.642;13.756;2023-07-20T05:55:24;4.93;;;2.13;;
35646;SDS011;28680;45.642;13.756;2023-07-20T05:57:50;7.25;;;2.40;;
35646;SDS011;28680;45.642;13.756;2023-07-20T06:00:17;5.43;;;2.10;;
35646;SDS011;28680;45.642;13.756;2023-07-20T06:02:52;4.35;;;2.00;;
35646;SDS011;28680;45.642;13.756;2023-07-20T06:05:26;9.48;;;2.22;;
35646;SDS011;28680;45.642;13.756;2023-07-20T06:07:58;6.30;;;1.90;;
35646;SDS011;28680;45.642;13.756;2023-07-20T06:10:28;8.70;;;2.47;;
35646;SDS011;28680;45.642;13.756;2023-07-20T06:12:57;7.78;;;2.30;;
35646;SDS011;28680;45.642;13.756;2023-07-20T06:15:26;4.15;;;2.40;;
35646;SDS011;28680;45.642;13.756;2023-07-20T06:18:04;8.27;;;2.55;;
35646;SDS011;28680;45.642;13.756;2023-07-20T06:20:30;4.15;;;2.00;;
35646;SDS011;28680;45.642;13.756;2023-07-20T06:22:56;9.25;;;2.55;;
35646;SDS011;28680;45.642;13.756;2023-07-20T06:25:25;10.15;;;2.50;;
35646;SDS011;28680;45.642;13.756;2023-07-20T06:27:51;4.57;;;1.75;;
35646;SDS011;28680;45.642;13.756;2023-07-20T06:30:19;4.15;;;1.52;;
35646;SDS011;28680;45.642;13.756;2023-07-20T06:32:45;5.13;;;1.42;;
35646;SDS011;28680;45.642;13.756;2023-07-20T06:35:11;3.55;;;1.30;;
35646;SDS011;28680;45.642;13.756;2023-07-20T06:37:37;2.53;;;1.60;;
35646;SDS011;28680;45.642;13.756;2023-07-20T06:40:04;4.80;;;1.60;;
35646;SDS011;28680;45.642;13.756;2023-07-20T06:42:30;4.18;;;1.90;;
35646;SDS011;28680;45.642;13.756;2023-07-20T06:44:57;3.30;;;1.90;;
35646;SDS011;28680;45.642;13.756;2023-07-20T06:47:23;5.70;;;1.85;;
35646;SDS011;28680;45.642;13.756;2023-07-20T06:49:52;3.78;;;1.80;;
35646;SDS011;28680;45.642;13.756;2023-07-20T06:52:18;4.95;;;1.75;;
35646;SDS011;28680;45.642;13.756;2023-07-20T06:54:44;6.20;;;1.92;;
35646;SDS011;28680;45.642;13.756;2023-07-20T06:57:10;4.80;;;1.70;;
35646;SDS011;28680;45.642;13.756;2023-07-20T06:59:36;2.95;;;1.55;;
35646;SDS011;28680;45.642;13.756;2023-07-20T07:02:02;4.13;;;1.73;;
35646;SDS011;28680;45.642;13.756;2023-07-20T07:04:28;3.92;;;1.83;;
35646;SDS011;28680;45.642;13.756;2023-07-20T07:06:54;3.90;;;1.65;;
35646;SDS011;28680;45.642;13.756;2023-07-20T07:09:20;3.38;;;1.30;;
35646;SDS011;28680;45.642;13.756;2023-07-20T07:11:46;2.70;;;1.65;;
35646;SDS011;28680;45.642;13.756;2023-07-20T07:14:12;3.17;;;1.52;;
35646;SDS011;28680;45.642;13.756;2023-07-20T07:16:38;4.03;;;1.90;;
35646;SDS011;28680;45.642;13.756;2023-07-20T07:19:04;4.22;;;1.75;;
35646;SDS011;28680;45.642;13.756;2023-07-20T07:21:32;3.35;;;1.60;;
35646;SDS011;28680;45.642;13.756;2023-07-20T07:23:58;7.50;;;1.90;;
35646;SDS011;28680;45.642;13.756;2023-07-20T07:26:27;4.55;;;1.70;;
35646;SDS011;28680;45.642;13.756;2023-07-20T07:28:53;6.65;;;1.80;;
35646;SDS011;28680;45.642;13.756;2023-07-20T07:31:19;2.92;;;1.90;;
35646;SDS011;28680;45.642;13.756;2023-07-20T07:33:46;5.50;;;1.85;;
35646;SDS011;28680;45.642;13.756;2023-07-20T07:36:12;3.72;;;1.65;;
35646;SDS011;28680;45.642;13.756;2023-07-20T07:38:37;3.72;;;1.90;;
35646;SDS011;28680;45.642;13.756;2023-07-20T07:41:04;5.55;;;2.33;;
35646;SDS011;28680;45.642;13.756;2023-07-20T07:43:30;4.13;;;2.00;;
35646;SDS011;28680;45.642;13.756;2023-07-20T07:45:56;4.32;;;2.00;;
35646;SDS011;28680;45.642;13.756;2023-07-20T07:48:22;7.28;;;2.08;;
35646;SDS011;28680;45.642;13.756;2023-07-20T07:50:50;5.57;;;1.83;;
35646;SDS011;28680;45.642;13.756;2023-07-20T07:53:16;4.53;;;2.25;;
35646;SDS011;28680;45.642;13.756;2023-07-20T07:55:43;5.63;;;2.08;;
35646;SDS011;28680;45.642;13.756;2023-07-20T07:58:09;5.50;;;2.10;;
35646;SDS011;28680;45.642;13.756;2023-07-20T08:00:35;2.45;;;1.73;;
35646;SDS011;28680;45.642;13.756;2023-07-20T08:03:01;3.20;;;2.03;;
35646;SDS011;28680;45.642;13.756;2023-07-20T08:05:27;4.45;;;2.20;;
35646;SDS011;28680;45.642;13.756;2023-07-20T08:07:53;5.68;;;2.03;;
35646;SDS011;28680;45.642;13.756;2023-07-20T08:10:19;2.67;;;1.50;;
35646;SDS011;28680;45.642;13.756;2023-07-20T08:12:45;4.90;;;1.73;;
35646;SDS011;28680;45.642;13.756;2023-07-20T08:15:11;2.25;;;1.50;;
35646;SDS011;28680;45.642;13.756;2023-07-20T08:17:40;5.43;;;1.90;;
35646;SDS011;28680;45.642;13.756;2023-07-20T08:20:08;3.63;;;1.98;;
35646;SDS011;28680;45.642;13.756;2023-07-20T08:22:37;3.53;;;1.60;;
35646;SDS011;28680;45.642;13.756;2023-07-20T08:25:05;4.20;;;1.65;;
35646;SDS011;28680;45.642;13.756;2023-07-20T08:27:32;3.55;;;1.85;;
35646;SDS011;28680;45.642;13.756;2023-07-20T08:29:58;6.63;;;2.20;;
35646;SDS011;28680;45.642;13.756;2023-07-20T08:32:25;3.15;;;1.80;;
35646;SDS011;28680;45.642;13.756;2023-07-20T08:34:51;5.50;;;2.33;;
35646;SDS011;28680;45.642;13.756;2023-07-20T08:37:17;4.95;;;2.30;;
35646;SDS011;28680;45.642;13.756;2023-07-20T08:39:43;5.15;;;2.50;;
35646;SDS011;28680;45.642;13.756;2023-07-20T08:42:09;4.25;;;2.40;;
35646;SDS011;28680;45.642;13.756;2023-07-20T08:44:37;5.15;;;2.60;;
35646;SDS011;28680;45.642;13.756;2023-07-20T08:47:04;2.83;;;2.00;;
35646;SDS011;28680;45.642;13.756;2023-07-20T08:49:32;3.67;;;2.47;;
35646;SDS011;28680;45.642;13.756;2023-07-20T08:51:59;5.38;;;2.45;;
35646;SDS011;28680;45.642;13.756;2023-07-20T08:54:29;3.47;;;2.42;;
35646;SDS011;28680;45.642;13.756;2023-07-20T08:57:03;4.18;;;2.25;;
35646;SDS011;28680;45.642;13.756;2023-07-20T08:59:31;5.03;;;2.33;;
35646;SDS011;28680;45.642;13.756;2023-07-20T09:02:00;6.50;;;2.78;;
35646;SDS011;28680;45.642;13.756;2023-07-20T09:04:29;4.03;;;2.20;;
35646;SDS011;28680;45.642;13.756;2023-07-20T09:06:55;4.45;;;2.50;;
35646;SDS011;28680;45.642;13.756;2023-07-20T09:09:22;4.38;;;2.55;;
35646;SDS011;28680;45.642;13.756;2023-07-20T09:11:49;4.35;;;2.33;;
35646;SDS011;28680;45.642;13.756;2023-07-20T09:14:15;5.13;;;2.30;;
35646;SDS011;28680;45.642;13.756;2023-07-20T09:16:48;3.10;;;2.20;;
35646;SDS011;28680;45.642;13.756;2023-07-20T09:19:20;6.80;;;3.75;;
35646;SDS011;28680;45.642;13.756;2023-07-20T09:21:47;8.77;;;2.75;;
35646;SDS011;28680;45.642;13.756;2023-07-20T09:24:14;7.72;;;3.10;;
35646;SDS011;28680;45.642;13.756;2023-07-20T09:26:45;3.38;;;1.90;;
35646;SDS011;28680;45.642;13.756;2023-07-20T09:29:14;3.63;;;2.30;;
35646;SDS011;28680;45.642;13.756;2023-07-20T09:31:43;3.60;;;2.13;;
35646;SDS011;28680;45.642;13.756;2023-07-20T09:34:30;4.80;;;2.47;;
35646;SDS011;28680;45.642;13.756;2023-07-20T09:36:57;3.80;;;2.30;;
35646;SDS011;28680;45.642;13.756;2023-07-20T09:39:24;4.45;;;2.50;;
35646;SDS011;28680;45.642;13.756;2023-07-20T09:41:51;3.33;;;2.00;;
35646;SDS011;28680;45.642;13.756;2023-07-20T09:44:17;6.28;;;2.25;;
35646;SDS011;28680;45.642;13.756;2023-07-20T09:46:48;5.60;;;2.28;;
35646;SDS011;28680;45.642;13.756;2023-07-20T09:49:18;5.18;;;2.25;;
35646;SDS011;28680;45.642;13.756;2023-07-20T09:51:44;3.88;;;2.10;;
35646;SDS011;28680;45.642;13.756;2023-07-20T09:54:11;5.63;;;2.50;;
35646;SDS011;28680;45.642;13.756;2023-07-20T09:56:45;2.28;;;2.00;;
35646;SDS011;28680;45.642;13.756;2023-07-20T09:59:13;7.03;;;2.33;;
35646;SDS011;28680;45.642;13.756;2023-07-20T10:01:42;4.22;;;2.50;;
35646;SDS011;28680;45.642;13.756;2023-07-20T10:04:11;5.53;;;2.38;;
35646;SDS011;28680;45.642;13.756;2023-07-20T10:06:39;4.90;;;2.45;;
35646;SDS011;28680;45.642;13.756;2023-07-20T10:09:12;7.20;;;2.50;;
35646;SDS011;28680;45.642;13.756;2023-07-20T10:11:43;4.13;;;2.67;;
35646;SDS011;28680;45.642;13.756;2023-07-20T10:14:15;5.15;;;2.33;;
35646;SDS011;28680;45.642;13.756;2023-07-20T10:16:54;5.20;;;2.42;;
35646;SDS011;28680;45.642;13.756;2023-07-20T10:22:18;4.38;;;2.30;;
35646;SDS011;28680;45.642;13.756;2023-07-20T10:24:57;6.30;;;3.28;;
35646;SDS011;28680;45.642;13.756;2023-07-20T10:29:51;5.05;;;2.72;;
35646;SDS011;28680;45.642;13.756;2023-07-20T10:32:21;5.10;;;2.70;;
35646;SDS011;28680;45.642;13.756;2023-07-20T10:34:55;8.23;;;2.85;;
35646;SDS011;28680;45.642;13.756;2023-07-20T10:43:46;6.95;;;2.53;;
35646;SDS011;28680;45.642;13.756;2023-07-20T10:46:13;4.95;;;2.63;;
35646;SDS011;28680;45.642;13.756;2023-07-20T10:51:27;10.70;;;3.15;;
35646;SDS011;28680;45.642;13.756;2023-07-20T10:53:54;8.25;;;2.92;;
35646;SDS011;28680;45.642;13.756;2023-07-20T10:56:27;9.40;;;3.03;;
35646;SDS011;28680;45.642;13.756;2023-07-20T10:58:59;6.78;;;2.70;;
35646;SDS011;28680;45.642;13.756;2023-07-20T11:01:29;5.93;;;2.38;;
35646;SDS011;28680;45.642;13.756;2023-07-20T11:04:02;8.10;;;2.78;;
35646;SDS011;28680;45.642;13.756;2023-07-20T11:06:37;11.38;;;2.90;;
35646;SDS011;28680;45.642;13.756;2023-07-20T11:09:06;9.07;;;3.05;;
35646;SDS011;28680;45.642;13.756;2023-07-20T11:11:43;10.02;;;2.85;;
35646;SDS011;28680;45.642;13.756;2023-07-20T11:17:51;7.65;;;3.00;;
35646;SDS011;28680;45.642;13.756;2023-07-20T11:20:17;6.55;;;2.67;;
35646;SDS011;28680;45.642;13.756;2023-07-20T11:22:43;7.13;;;2.83;;
35646;SDS011;28680;45.642;13.756;2023-07-20T11:25:09;7.72;;;3.53;;
35646;SDS011;28680;45.642;13.756;2023-07-20T11:27:43;10.40;;;3.10;;
35646;SDS011;28680;45.642;13.756;2023-07-20T11:30:18;8.57;;;3.33;;
35646;SDS011;28680;45.642;13.756;2023-07-20T11:32:49;9.50;;;2.70;;
35646;SDS011;28680;45.642;13.756;2023-07-20T11:35:24;7.55;;;2.58;;
35646;SDS011;28680;45.642;13.756;2023-07-20T11:37:50;9.52;;;3.42;;
35646;SDS011;28680;45.642;13.756;2023-07-20T11:40:24;9.27;;;2.63;;
35646;SDS011;28680;45.642;13.756;2023-07-20T11:42:53;8.10;;;2.65;;
35646;SDS011;28680;45.642;13.756;2023-07-20T12:03:06;15.07;;;8.57;;
35646;SDS011;28680;45.642;13.756;2023-07-20T12:05:41;6.70;;;2.90;;
35646;SDS011;28680;45.642;13.756;2023-07-20T12:10:53;23.23;;;11.65;;
35646;SDS011;28680;45.642;13.756;2023-07-20T12:13:19;16.25;;;8.18;;
35646;SDS011;28680;45.642;13.756;2023-07-20T12:15:45;18.35;;;9.13;;
35646;SDS011;28680;45.642;13.756;2023-07-20T12:18:11;16.70;;;7.60;;
35646;SDS011;28680;45.642;13.756;2023-07-20T12:20:37;19.88;;;10.85;;
35646;SDS011;28680;45.642;13.756;2023-07-20T12:23:08;11.55;;;4.68;;
35646;SDS011;28680;45.642;13.756;2023-07-20T12:25:43;14.68;;;6.57;;
35646;SDS011;28680;45.642;13.756;2023-07-20T12:28:12;7.22;;;3.60;;
35646;SDS011;28680;45.642;13.756;2023-07-20T12:30:44;32.03;;;17.38;;
35646;SDS011;28680;45.642;13.756;2023-07-20T12:33:12;31.80;;;18.40;;
35646;SDS011;28680;45.642;13.756;2023-07-20T12:35:42;31.05;;;15.77;;
35646;SDS011;28680;45.642;13.756;2023-07-20T12:38:08;33.83;;;17.35;;
35646;SDS011;28680;45.642;13.756;2023-07-20T12:40:34;20.90;;;10.88;;
35646;SDS011;28680;45.642;13.756;2023-07-20T12:43:01;36.33;;;19.15;;
35646;SDS011;28680;45.642;13.756;2023-07-20T12:45:27;37.65;;;19.83;;
35646;SDS011;28680;45.642;13.756;2023-07-20T12:47:53;35.45;;;19.85;;
35646;SDS011;28680;45.642;13.756;2023-07-20T12:50:19;38.97;;;19.70;;
35646;SDS011;28680;45.642;13.756;2023-07-20T12:52:45;39.95;;;22.00;;
35646;SDS011;28680;45.642;13.756;2023-07-20T12:55:11;23.75;;;12.55;;
35646;SDS011;28680;45.642;13.756;2023-07-20T12:57:37;39.25;;;21.02;;
35646;SDS011;28680;45.642;13.756;2023-07-20T13:00:04;25.90;;;12.40;;
35646;SDS011;28680;45.642;13.756;2023-07-20T13:02:35;33.05;;;17.35;;
35646;SDS011;28680;45.642;13.756;2023-07-20T13:05:01;39.53;;;21.48;;
35646;SDS011;28680;45.642;13.756;2023-07-20T13:07:32;41.20;;;22.05;;
35646;SDS011;28680;45.642;13.756;2023-07-20T13:10:01;36.13;;;18.40;;
35646;SDS011;28680;45.642;13.756;2023-07-20T13:12:30;45.13;;;24.55;;
35646;SDS011;28680;45.642;13.756;2023-07-20T13:14:57;27.60;;;14.88;;
35646;SDS011;28680;45.642;13.756;2023-07-20T13:17:27;13.10;;;6.45;;
35646;SDS011;28680;45.642;13.756;2023-07-20T13:20:01;36.22;;;18.58;;
35646;SDS011;28680;45.642;13.756;2023-07-20T13:22:32;27.45;;;15.88;;
35646;SDS011;28680;45.642;13.756;2023-07-20T13:25:00;14.55;;;7.07;;
35646;SDS011;28680;45.642;13.756;2023-07-20T13:27:26;38.75;;;20.25;;
35646;SDS011;28680;45.642;13.756;2023-07-20T13:29:54;48.15;;;24.25;;
35646;SDS011;28680;45.642;13.756;2023-07-20T13:32:20;21.25;;;10.68;;
35646;SDS011;28680;45.642;13.756;2023-07-20T13:34:50;41.92;;;21.15;;
35646;SDS011;28680;45.642;13.756;2023-07-20T13:37:16;10.48;;;5.20;;
35646;SDS011;28680;45.642;13.756;2023-07-20T13:39:45;10.05;;;2.60;;
35646;SDS011;28680;45.642;13.756;2023-07-20T13:42:11;47.05;;;23.80;;
35646;SDS011;28680;45.642;13.756;2023-07-20T13:47:30;8.32;;;3.65;;
35646;SDS011;28680;45.642;13.756;2023-07-20T13:49:56;29.38;;;15.52;;
35646;SDS011;28680;45.642;13.756;2023-07-20T13:52:22;42.25;;;22.75;;
35646;SDS011;28680;45.642;13.756;2023-07-20T13:54:54;43.25;;;23.23;;
35646;SDS011;28680;45.642;13.756;2023-07-20T13:57:20;21.73;;;9.77;;
35646;SDS011;28680;45.642;13.756;2023-07-20T13:59:46;40.33;;;22.48;;
35646;SDS011;28680;45.642;13.756;2023-07-20T14:02:13;39.78;;;19.55;;
35646;SDS011;28680;45.642;13.756;2023-07-20T14:04:40;46.97;;;25.45;;
35646;SDS011;28680;45.642;13.756;2023-07-20T14:07:06;43.20;;;23.75;;
35646;SDS011;28680;45.642;13.756;2023-07-20T14:09:32;43.08;;;22.55;;
35646;SDS011;28680;45.642;13.756;2023-07-20T14:11:59;27.80;;;13.95;;
35646;SDS011;28680;45.642;13.756;2023-07-20T14:14:25;40.53;;;21.15;;
35646;SDS011;28680;45.642;13.756;2023-07-20T14:16:54;18.63;;;8.38;;
35646;SDS011;28680;45.642;13.756;2023-07-20T14:19:21;36.15;;;16.85;;
35646;SDS011;28680;45.642;13.756;2023-07-20T14:21:50;15.52;;;7.25;;
35646;SDS011;28680;45.642;13.756;2023-07-20T14:24:19;59.78;;;29.13;;
35646;SDS011;28680;45.642;13.756;2023-07-20T14:26:45;67.63;;;34.80;;
35646;SDS011;28680;45.642;13.756;2023-07-20T14:29:14;8.20;;;3.50;;
35646;SDS011;28680;45.642;13.756;2023-07-20T14:31:40;87.22;;;59.00;;
35646;SDS011;28680;45.642;13.756;2023-07-20T14:34:06;101.82;;;74.30;;
35646;SDS011;28680;45.642;13.756;2023-07-20T14:36:32;24.73;;;15.68;;
35646;SDS011;28680;45.642;13.756;2023-07-20T14:38:58;97.18;;;63.38;;
35646;SDS011;28680;45.642;13.756;2023-07-20T14:41:24;64.32;;;38.90;;
35646;SDS011;28680;45.642;13.756;2023-07-20T14:43:54;93.55;;;60.92;;
35646;SDS011;28680;45.642;13.756;2023-07-20T14:46:20;95.85;;;59.85;;
35646;SDS011;28680;45.642;13.756;2023-07-20T14:48:46;54.78;;;33.65;;
35646;SDS011;28680;45.642;13.756;2023-07-20T14:51:17;61.08;;;37.05;;
35646;SDS011;28680;45.642;13.756;2023-07-20T14:53:46;79.72;;;48.78;;
35646;SDS011;28680;45.642;13.756;2023-07-20T14:56:12;97.75;;;58.90;;
35646;SDS011;28680;45.642;13.756;2023-07-20T14:58:38;77.90;;;45.25;;
35646;SDS011;28680;45.642;13.756;2023-07-20T15:01:04;14.32;;;7.95;;
35646;SDS011;28680;45.642;13.756;2023-07-20T15:03:30;64.40;;;38.90;;
35646;SDS011;28680;45.642;13.756;2023-07-20T15:05:56;72.10;;;42.05;;
35646;SDS011;28680;45.642;13.756;2023-07-20T15:08:22;33.42;;;18.90;;
35646;SDS011;28680;45.642;13.756;2023-07-20T15:10:49;25.15;;;15.15;;
35646;SDS011;28680;45.642;13.756;2023-07-20T15:13:15;59.97;;;36.53;;
35646;SDS011;28680;45.642;13.756;2023-07-20T15:15:41;43.28;;;25.63;;
35646;SDS011;28680;45.642;13.756;2023-07-20T15:18:08;69.18;;;42.33;;
35646;SDS011;28680;45.642;13.756;2023-07-20T15:20:34;69.93;;;41.78;;
35646;SDS011;28680;45.642;13.756;2023-07-20T15:23:00;36.33;;;20.52;;
35646;SDS011;28680;45.642;13.756;2023-07-20T15:25:27;63.08;;;38.30;;